createdAt,value
2017-08-09T00:02:12.896Z,17.50
2017-08-09T00:04:40.413Z,17.50
2017-08-09T00:07:07.913Z,17.50
2017-08-09T00:15:21.758Z,17.50
2017-08-09T00:17:49.340Z,17.50
2017-08-09T00:20:17.009Z,17.50
2017-08-09T00:22:45.303Z,17.40
2017-08-09T00:25:12.869Z,17.40
2017-08-09T00:27:40.397Z,17.50
2017-08-09T00:30:07.900Z,17.40
2017-08-09T00:32:35.411Z,17.40
2017-08-09T00:35:03.679Z,17.40
2017-08-09T00:37:31.184Z,17.40
2017-08-09T00:39:58.660Z,17.40
2017-08-09T00:42:26.181Z,17.40
2017-08-09T00:44:53.673Z,17.40
2017-08-09T00:47:21.191Z,17.40
2017-08-09T00:49:48.690Z,17.30
2017-08-09T00:52:16.419Z,17.30
2017-08-09T00:54:43.913Z,17.30
2017-08-09T00:57:12.116Z,17.30
2017-08-09T00:59:39.594Z,17.30
2017-08-09T01:02:07.861Z,17.30
2017-08-09T01:04:35.380Z,17.30
2017-08-09T01:07:02.884Z,17.30
2017-08-09T01:09:31.162Z,17.30
2017-08-09T01:11:58.667Z,17.30
2017-08-09T01:14:26.187Z,17.20
2017-08-09T01:16:53.692Z,17.10
2017-08-09T01:19:21.211Z,17.10
2017-08-09T01:21:48.721Z,17.10
2017-08-09T01:24:16.795Z,17.10
2017-08-09T01:26:44.278Z,17.10
2017-08-09T01:29:12.555Z,17.20
2017-08-09T01:31:40.051Z,17.20
2017-08-09T01:34:07.574Z,17.20
2017-08-09T01:36:35.074Z,17.30
2017-08-09T01:39:02.575Z,17.30
2017-08-09T01:41:31.151Z,17.40
2017-08-09T01:43:58.640Z,17.40
2017-08-09T01:46:26.148Z,17.40
2017-08-09T01:48:53.652Z,17.30
2017-08-09T01:51:21.179Z,17.30
2017-08-09T01:53:48.678Z,17.30
2017-08-09T01:56:16.181Z,17.30
2017-08-09T01:58:43.700Z,17.30
2017-08-09T02:01:11.205Z,17.20
2017-08-09T02:03:38.709Z,17.10
2017-08-09T02:06:06.222Z,17.20
2017-08-09T02:08:33.721Z,17.10
2017-08-09T02:11:01.243Z,17.20
2017-08-09T02:13:28.739Z,17.20
2017-08-09T02:15:56.247Z,17.20
2017-08-09T02:18:23.776Z,17.20
2017-08-09T02:20:51.265Z,17.30
2017-08-09T02:23:18.763Z,17.30
2017-08-09T02:25:46.273Z,17.30
2017-08-09T02:28:13.791Z,17.30
2017-08-09T02:30:41.291Z,17.30
2017-08-09T02:33:08.797Z,17.40
2017-08-09T02:35:36.303Z,17.30
2017-08-09T02:38:03.812Z,17.30
2017-08-09T02:40:31.299Z,17.20
2017-08-09T02:42:59.679Z,17.10
2017-08-09T02:45:27.217Z,17.10
2017-08-09T02:47:54.712Z,17.10
2017-08-09T02:50:22.240Z,17.10
2017-08-09T02:52:49.726Z,17.00
2017-08-09T02:55:17.260Z,16.90
2017-08-09T02:57:44.747Z,16.90
2017-08-09T03:00:12.264Z,16.80
2017-08-09T03:02:39.751Z,16.80
2017-08-09T03:05:07.259Z,16.80
2017-08-09T03:07:35.518Z,16.80
2017-08-09T03:10:03.019Z,16.80
2017-08-09T03:12:30.521Z,16.80
2017-08-09T03:14:58.100Z,16.90
2017-08-09T03:17:26.360Z,16.90
2017-08-09T03:19:53.882Z,16.90
2017-08-09T03:22:21.379Z,16.90
2017-08-09T03:24:48.886Z,16.90
2017-08-09T03:27:16.405Z,16.80
2017-08-09T03:29:43.904Z,16.90
2017-08-09T03:32:11.436Z,16.90
2017-08-09T03:34:38.947Z,16.90
2017-08-09T03:37:06.468Z,16.90
2017-08-09T03:39:33.960Z,16.90
2017-08-09T03:42:01.471Z,16.90
2017-08-09T03:44:29.743Z,16.80
2017-08-09T03:46:58.030Z,16.70
2017-08-09T03:49:25.522Z,16.70
2017-08-09T03:51:53.860Z,16.70
2017-08-09T03:54:21.344Z,16.60
2017-08-09T03:56:48.866Z,16.70
2017-08-09T03:59:17.126Z,16.70
2017-08-09T04:01:44.627Z,16.70
2017-08-09T04:04:12.130Z,16.70
2017-08-09T04:06:39.664Z,16.70
2017-08-09T04:09:07.168Z,16.80
2017-08-09T04:11:35.439Z,16.80
2017-08-09T04:14:03.711Z,16.90
2017-08-09T04:16:31.973Z,16.80
2017-08-09T04:18:59.471Z,16.80
2017-08-09T04:21:26.977Z,16.80
2017-08-09T04:23:54.477Z,16.80
2017-08-09T04:26:21.964Z,16.80
2017-08-09T04:28:49.464Z,16.80
2017-08-09T04:31:16.956Z,16.70
2017-08-09T04:33:44.462Z,16.60
2017-08-09T04:36:11.955Z,16.60
2017-08-09T04:38:40.232Z,16.50
2017-08-09T04:41:07.741Z,16.50
2017-08-09T04:43:35.229Z,16.50
2017-08-09T04:46:02.723Z,16.40
2017-08-09T04:48:30.208Z,16.30
2017-08-09T04:50:57.720Z,16.20
2017-08-09T04:53:25.984Z,16.10
2017-08-09T04:55:53.502Z,16.00
2017-08-09T04:58:20.993Z,16.10
2017-08-09T05:00:48.502Z,16.00
2017-08-09T05:03:16.021Z,16.10
2017-08-09T05:05:44.313Z,16.10
2017-08-09T05:08:11.804Z,16.00
2017-08-09T05:10:39.319Z,16.10
2017-08-09T05:13:06.825Z,16.00
2017-08-09T05:15:34.311Z,16.00
2017-08-09T05:18:01.829Z,16.00
2017-08-09T05:20:29.318Z,15.90
2017-08-09T05:22:56.810Z,15.90
2017-08-09T05:25:25.064Z,15.90
2017-08-09T05:27:52.568Z,15.80
2017-08-09T05:30:20.087Z,15.90
2017-08-09T05:32:47.589Z,15.90
2017-08-09T05:35:15.092Z,15.90
2017-08-09T05:37:42.582Z,15.90
2017-08-09T05:40:10.835Z,16.00
2017-08-09T05:42:38.340Z,16.00
2017-08-09T05:45:05.865Z,16.00
2017-08-09T05:47:34.124Z,16.10
2017-08-09T05:50:01.619Z,16.10
2017-08-09T05:52:29.085Z,16.10
2017-08-09T05:54:56.594Z,16.10
2017-08-09T05:57:24.075Z,16.20
2017-08-09T05:59:51.579Z,16.20
2017-08-09T06:02:19.068Z,16.30
2017-08-09T06:04:50.930Z,16.30
2017-08-09T06:07:18.451Z,16.40
2017-08-09T06:09:45.967Z,16.50
2017-08-09T06:12:13.470Z,16.50
2017-08-09T06:14:40.967Z,16.60
2017-08-09T06:17:08.450Z,16.60
2017-08-09T06:19:35.967Z,16.70
2017-08-09T06:22:03.452Z,16.80
2017-08-09T06:24:30.979Z,16.80
2017-08-09T06:26:58.468Z,16.90
2017-08-09T06:29:25.959Z,17.00
2017-08-09T06:31:53.464Z,17.10
2017-08-09T06:34:20.969Z,17.20
2017-08-09T06:36:48.505Z,17.20
2017-08-09T06:39:15.998Z,17.30
2017-08-09T06:41:43.527Z,17.30
2017-08-09T06:44:11.067Z,17.40
2017-08-09T06:46:39.332Z,17.50
2017-08-09T06:49:06.819Z,17.50
2017-08-09T06:51:34.404Z,17.60
2017-08-09T06:54:01.886Z,17.70
2017-08-09T06:56:29.392Z,17.80
2017-08-09T06:58:56.883Z,17.90
2017-08-09T07:01:24.955Z,18.00
2017-08-09T07:03:53.263Z,18.20
2017-08-09T07:06:20.772Z,18.20
2017-08-09T07:08:48.276Z,18.20
2017-08-09T07:11:15.775Z,18.30
2017-08-09T07:13:43.271Z,18.30
2017-08-09T07:16:10.766Z,18.30
2017-08-09T07:18:38.292Z,18.40
2017-08-09T07:21:06.601Z,18.50
2017-08-09T07:23:34.132Z,18.50
2017-08-09T07:26:01.636Z,18.60
2017-08-09T07:28:29.162Z,18.70
2017-08-09T07:30:57.435Z,18.80
2017-08-09T07:33:24.952Z,18.80
2017-08-09T07:35:52.463Z,18.90
2017-08-09T07:38:19.971Z,18.90
2017-08-09T07:40:47.459Z,18.90
2017-08-09T07:43:14.963Z,19.00
2017-08-09T07:45:42.471Z,19.10
2017-08-09T07:48:09.986Z,19.20
2017-08-09T07:50:37.483Z,19.30
2017-08-09T07:53:04.997Z,19.40
2017-08-09T07:55:32.484Z,19.40
2017-08-09T07:57:59.984Z,19.50
2017-08-09T08:00:27.479Z,19.40
2017-08-09T08:02:57.230Z,19.50
2017-08-09T08:05:24.818Z,19.50
2017-08-09T08:07:52.347Z,19.40
2017-08-09T08:10:19.841Z,19.50
2017-08-09T08:12:47.321Z,19.50
2017-08-09T08:15:14.951Z,19.60
2017-08-09T08:17:42.668Z,19.70
2017-08-09T08:20:10.208Z,19.70
2017-08-09T08:22:37.813Z,19.70
2017-08-09T08:25:05.323Z,19.80
2017-08-09T08:27:32.819Z,20.00
2017-08-09T08:30:00.328Z,20.00
2017-08-09T08:32:27.885Z,20.20
2017-08-09T08:34:55.407Z,20.30
2017-08-09T08:37:22.901Z,20.30
2017-08-09T08:39:50.396Z,20.30
2017-08-09T08:42:17.891Z,20.40
2017-08-09T08:44:45.375Z,20.40
2017-08-09T08:47:12.866Z,20.40
2017-08-09T08:49:40.387Z,20.40
2017-08-09T08:52:07.912Z,20.40
2017-08-09T08:54:35.400Z,20.50
2017-08-09T08:57:02.915Z,20.50
2017-08-09T08:59:30.404Z,20.60
2017-08-09T09:01:57.953Z,20.60
2017-08-09T09:04:25.440Z,20.60
2017-08-09T09:06:52.910Z,20.60
2017-08-09T09:09:20.423Z,20.70
2017-08-09T09:11:47.896Z,20.70
2017-08-09T09:14:15.393Z,20.70
2017-08-09T09:16:42.869Z,20.80
2017-08-09T09:19:10.351Z,20.80
2017-08-09T09:21:37.844Z,21.00
2017-08-09T09:24:05.364Z,21.10
2017-08-09T09:26:32.891Z,21.10
2017-08-09T09:29:00.413Z,21.10
2017-08-09T09:31:27.914Z,21.20
2017-08-09T09:33:55.445Z,21.20
2017-08-09T09:36:22.931Z,21.30
2017-08-09T09:38:51.480Z,21.40
2017-08-09T09:41:18.983Z,21.40
2017-08-09T09:43:46.479Z,21.50
2017-08-09T09:46:13.977Z,21.50
2017-08-09T09:48:41.476Z,21.50
2017-08-09T09:51:08.988Z,21.50
2017-08-09T09:53:36.480Z,21.40
2017-08-09T09:56:03.979Z,21.40
2017-08-09T09:58:31.477Z,21.50
2017-08-09T10:00:58.997Z,21.60
2017-08-09T10:03:26.489Z,21.80
2017-08-09T10:05:54.006Z,21.90
2017-08-09T10:08:21.495Z,21.90
2017-08-09T10:10:48.998Z,21.90
2017-08-09T10:13:16.599Z,22.10
2017-08-09T10:15:44.129Z,22.00
2017-08-09T10:18:11.631Z,22.00
2017-08-09T10:20:39.139Z,22.10
2017-08-09T10:23:07.416Z,22.20
2017-08-09T10:25:35.701Z,22.20
2017-08-09T10:28:03.222Z,22.20
2017-08-09T10:30:30.741Z,22.30
2017-08-09T10:32:58.255Z,22.30
2017-08-09T10:35:25.795Z,22.30
2017-08-09T10:40:44.351Z,22.40
2017-08-09T10:43:11.865Z,22.50
2017-08-09T10:45:39.373Z,22.60
2017-08-09T10:48:06.890Z,22.80
2017-08-09T10:50:34.391Z,22.90
2017-08-09T10:53:01.895Z,22.90
2017-08-09T10:55:30.152Z,22.90
2017-08-09T10:57:57.659Z,22.90
2017-08-09T11:00:25.154Z,22.90
2017-08-09T11:02:52.641Z,22.90
2017-08-09T11:05:20.139Z,22.90
2017-08-09T11:07:47.628Z,22.90
2017-08-09T11:10:25.699Z,23.00
2017-08-09T11:12:53.212Z,23.10
2017-08-09T11:15:20.711Z,23.20
2017-08-09T11:17:48.201Z,23.20
2017-08-09T11:20:15.705Z,23.20
2017-08-09T11:22:43.183Z,23.00
2017-08-09T11:25:10.816Z,22.80
2017-08-09T11:27:38.351Z,22.70
2017-08-09T11:30:06.627Z,22.80
2017-08-09T11:32:34.123Z,22.80
2017-08-09T11:35:02.450Z,22.90
2017-08-09T11:37:29.964Z,22.80
2017-08-09T11:39:57.761Z,22.80
2017-08-09T11:42:25.255Z,22.60
2017-08-09T11:44:52.742Z,22.40
2017-08-09T11:47:20.267Z,22.40
2017-08-09T11:49:47.744Z,22.30
2017-08-09T11:52:15.243Z,22.20
2017-08-09T11:54:42.747Z,22.20
2017-08-09T11:57:11.019Z,22.40
2017-08-09T11:59:38.507Z,22.40
2017-08-09T12:02:06.018Z,22.60
2017-08-09T12:04:33.499Z,22.70
2017-08-09T12:07:01.762Z,23.00
2017-08-09T12:09:30.024Z,23.10
2017-08-09T12:11:57.519Z,23.00
2017-08-09T12:14:25.014Z,22.90
2017-08-09T12:16:52.542Z,22.80
2017-08-09T12:19:20.091Z,22.90
2017-08-09T12:21:47.579Z,22.90
2017-08-09T12:24:15.087Z,22.70
2017-08-09T12:26:43.338Z,22.70
2017-08-09T12:29:10.848Z,22.70
2017-08-09T12:31:38.337Z,22.90
2017-08-09T12:34:05.847Z,22.90
2017-08-09T12:36:33.344Z,22.90
2017-08-09T12:39:00.860Z,23.00
2017-08-09T12:41:29.119Z,22.90
2017-08-09T12:43:59.205Z,22.90
2017-08-09T12:46:26.712Z,22.90
2017-08-09T12:48:54.245Z,22.80
2017-08-09T12:51:21.735Z,22.80
2017-08-09T12:53:49.232Z,22.70
2017-08-09T12:56:16.727Z,22.70
2017-08-09T12:58:44.204Z,22.70
2017-08-09T13:01:11.712Z,22.60
2017-08-09T13:03:39.300Z,22.50
2017-08-09T13:06:06.816Z,22.60
2017-08-09T13:08:34.320Z,22.70
2017-08-09T13:11:01.836Z,22.80
2017-08-09T13:13:29.803Z,22.90
2017-08-09T13:15:57.297Z,23.10
2017-08-09T13:18:24.787Z,23.10
2017-08-09T13:20:52.351Z,23.10
2017-08-09T13:23:19.849Z,23.10
2017-08-09T13:25:47.356Z,23.10
2017-08-09T13:28:15.606Z,23.00
2017-08-09T13:30:43.096Z,23.00
2017-08-09T13:33:10.595Z,22.90
2017-08-09T13:35:38.063Z,22.90
2017-08-09T13:38:05.560Z,22.80
2017-08-09T13:40:33.056Z,22.80
2017-08-09T13:43:00.568Z,22.80
2017-08-09T13:45:28.054Z,22.80
2017-08-09T13:47:55.546Z,22.80
2017-08-09T13:50:23.057Z,22.80
2017-08-09T13:52:50.567Z,22.80
2017-08-09T13:55:18.052Z,22.80
2017-08-09T13:57:46.327Z,22.90
2017-08-09T14:00:13.800Z,22.80
2017-08-09T14:02:41.292Z,23.00
2017-08-09T14:05:08.770Z,22.90
2017-08-09T14:07:36.281Z,23.00
2017-08-09T14:10:03.795Z,22.90
2017-08-09T14:12:31.284Z,22.90
2017-08-09T14:14:58.816Z,22.80
2017-08-09T14:17:26.295Z,22.70
2017-08-09T14:19:54.546Z,22.80
2017-08-09T14:22:22.040Z,22.80
2017-08-09T14:24:49.531Z,22.90
2017-08-09T14:27:17.009Z,23.00
2017-08-09T14:29:44.500Z,23.00
2017-08-09T14:32:12.750Z,23.00
2017-08-09T14:34:40.243Z,23.00
2017-08-09T14:37:07.742Z,23.00
2017-08-09T14:39:35.254Z,22.90
2017-08-09T14:42:02.760Z,23.00
2017-08-09T14:44:30.250Z,23.00
2017-08-09T14:46:57.742Z,23.10
2017-08-09T14:49:25.216Z,23.00
2017-08-09T14:51:52.736Z,23.00
2017-08-09T14:54:20.263Z,22.90
2017-08-09T14:56:47.753Z,23.00
2017-08-09T14:59:15.240Z,23.10
2017-08-09T15:01:43.359Z,23.00
2017-08-09T15:04:10.843Z,23.00
2017-08-09T15:06:38.335Z,23.00
2017-08-09T15:09:05.816Z,23.00
2017-08-09T15:11:33.319Z,23.00
2017-08-09T15:14:01.560Z,23.00
2017-08-09T15:16:29.050Z,23.00
2017-08-09T15:18:57.298Z,22.90
2017-08-09T15:21:24.771Z,22.90
2017-08-09T15:23:52.265Z,22.80
2017-08-09T15:26:19.788Z,22.80
2017-08-09T15:28:47.276Z,22.80
2017-08-09T15:31:14.757Z,22.90
2017-08-09T15:33:42.244Z,22.90
2017-08-09T15:36:09.724Z,23.00
2017-08-09T15:38:37.228Z,23.10
2017-08-09T15:41:04.710Z,23.10
2017-08-09T15:43:32.200Z,23.10
2017-08-09T15:46:00.439Z,22.90
2017-08-09T15:48:27.936Z,22.90
2017-08-09T15:50:57.164Z,22.80
2017-08-09T15:53:24.654Z,22.80
2017-08-09T15:55:52.167Z,22.80
2017-08-09T15:58:19.645Z,22.80
2017-08-09T16:00:47.131Z,22.80
2017-08-09T16:03:14.608Z,22.90
2017-08-09T16:05:42.102Z,22.90
2017-08-09T16:08:09.580Z,22.80
2017-08-09T16:10:37.069Z,22.80
2017-08-09T16:13:04.577Z,22.80
2017-08-09T16:15:32.068Z,22.70
2017-08-09T16:17:59.552Z,22.70
2017-08-09T16:20:27.819Z,22.60
2017-08-09T16:22:55.292Z,22.60
2017-08-09T16:25:23.884Z,22.60
2017-08-09T16:27:52.128Z,22.40
2017-08-09T16:30:19.651Z,22.40
2017-08-09T16:32:47.136Z,22.30
2017-08-09T16:35:14.633Z,22.30
2017-08-09T16:37:42.168Z,22.30
2017-08-09T16:40:10.430Z,22.30
2017-08-09T16:42:37.927Z,22.30
2017-08-09T16:45:06.167Z,22.30
2017-08-09T16:47:33.667Z,22.30
2017-08-09T16:50:01.931Z,22.40
2017-08-09T16:52:29.440Z,22.40
2017-08-09T16:54:56.927Z,22.30
2017-08-09T16:57:24.436Z,22.30
2017-08-09T16:59:51.938Z,22.40
2017-08-09T17:02:19.440Z,22.30
2017-08-09T17:04:46.932Z,22.40
2017-08-09T17:07:14.446Z,22.40
2017-08-09T17:09:41.927Z,22.50
2017-08-09T17:12:09.425Z,22.60
2017-08-09T17:14:36.911Z,22.60
2017-08-09T17:17:05.157Z,22.50
2017-08-09T17:19:32.659Z,22.50
2017-08-09T17:22:00.139Z,22.60
2017-08-09T17:24:27.639Z,22.50
2017-08-09T17:26:55.964Z,22.60
2017-08-09T17:29:23.460Z,22.60
2017-08-09T17:31:50.946Z,22.60
2017-08-09T17:34:18.431Z,22.50
2017-08-09T17:36:45.908Z,22.50
2017-08-09T17:39:13.417Z,22.40
2017-08-09T17:41:40.896Z,22.30
2017-08-09T17:44:08.386Z,22.20
2017-08-09T17:46:35.879Z,22.10
2017-08-09T17:49:04.179Z,22.00
2017-08-09T17:51:31.687Z,21.90
2017-08-09T17:53:59.175Z,21.80
2017-08-09T17:56:27.441Z,21.60
2017-08-09T17:58:54.932Z,21.60
2017-08-09T18:01:22.440Z,21.60
2017-08-09T18:03:49.939Z,21.50
2017-08-09T18:06:17.453Z,21.40
2017-08-09T18:08:44.936Z,21.40
2017-08-09T18:11:12.432Z,21.30
2017-08-09T18:13:39.919Z,21.20
2017-08-09T18:16:07.410Z,21.20
2017-08-09T18:18:35.681Z,21.00
2017-08-09T18:21:03.182Z,21.00
2017-08-09T18:23:30.677Z,21.00
2017-08-09T18:25:58.167Z,20.90
2017-08-09T18:28:25.659Z,20.80
2017-08-09T18:30:53.154Z,20.80
2017-08-09T18:33:20.661Z,20.70
2017-08-09T18:35:48.153Z,20.60
2017-08-09T18:38:15.648Z,20.50
2017-08-09T18:40:43.926Z,20.30
2017-08-09T18:43:11.442Z,20.30
2017-08-09T18:45:38.949Z,20.20
2017-08-09T18:48:07.231Z,20.10
2017-08-09T18:50:34.734Z,20.00
2017-08-09T18:53:02.230Z,20.00
2017-08-09T18:55:29.718Z,19.90
2017-08-09T18:57:57.229Z,19.80
2017-08-09T19:00:24.703Z,19.70
2017-08-09T19:02:52.984Z,19.50
2017-08-09T19:05:21.263Z,19.50
2017-08-09T19:07:48.777Z,19.50
2017-08-09T19:10:16.290Z,19.40
2017-08-09T19:12:43.811Z,19.30
2017-08-09T19:15:11.326Z,19.30
2017-08-09T19:17:38.825Z,19.20
2017-08-09T19:20:06.331Z,19.20
2017-08-09T19:22:34.626Z,19.10
2017-08-09T19:25:02.144Z,19.00
2017-08-09T19:27:29.676Z,18.90
2017-08-09T19:29:57.197Z,18.90
2017-08-09T19:32:24.738Z,18.80
2017-08-09T19:34:52.255Z,18.80
2017-08-09T19:37:19.730Z,18.70
2017-08-09T19:39:47.272Z,18.70
2017-08-09T19:42:14.800Z,18.60
2017-08-09T19:44:42.291Z,18.50
2017-08-09T19:47:10.567Z,18.40
2017-08-09T19:49:38.058Z,18.40
2017-08-09T19:52:05.566Z,18.40
2017-08-09T19:54:33.147Z,18.30
2017-08-09T19:57:00.640Z,18.30
2017-08-09T19:59:28.181Z,18.20
2017-08-09T20:01:55.688Z,18.20
2017-08-09T20:04:23.166Z,18.10
2017-08-09T20:06:50.661Z,18.00
2017-08-09T20:09:18.156Z,18.00
2017-08-09T20:11:45.720Z,17.90
2017-08-09T20:14:13.211Z,17.90
2017-08-09T20:16:40.727Z,17.80
2017-08-09T20:19:08.264Z,17.80
2017-08-09T20:21:35.807Z,17.70
2017-08-09T20:24:03.349Z,17.70
2017-08-09T20:26:31.612Z,17.60
2017-08-09T20:28:59.099Z,17.60
2017-08-09T20:31:26.632Z,17.50
2017-08-09T20:33:54.119Z,17.50
2017-08-09T20:36:21.670Z,17.40
2017-08-09T20:38:49.222Z,17.40
2017-08-09T20:41:17.495Z,17.30
2017-08-09T20:43:44.984Z,17.30
2017-08-09T20:46:12.475Z,17.30
2017-08-09T20:48:39.979Z,17.20
2017-08-09T20:51:08.291Z,17.10
2017-08-09T20:53:35.795Z,17.10
2017-08-09T20:56:04.692Z,17.00
2017-08-09T20:58:32.202Z,17.00
2017-08-09T21:00:59.712Z,17.00
2017-08-09T21:03:27.259Z,17.00
2017-08-09T21:05:54.750Z,16.90
2017-08-09T21:08:22.275Z,16.90
2017-08-09T21:10:49.792Z,16.90
2017-08-09T21:13:17.288Z,16.80
2017-08-09T21:15:44.894Z,16.80
2017-08-09T21:18:12.707Z,16.70
2017-08-09T21:20:40.254Z,16.70
2017-08-09T21:23:07.755Z,16.70
2017-08-09T21:25:36.032Z,16.60
2017-08-09T21:28:03.523Z,16.60
2017-08-09T21:30:31.019Z,16.60
2017-08-09T21:32:58.520Z,16.50
2017-08-09T21:35:26.077Z,16.50
2017-08-09T21:37:53.665Z,16.40
2017-08-09T21:40:21.332Z,16.40
2017-08-09T21:42:48.824Z,16.40
2017-08-09T21:45:16.320Z,16.40
2017-08-09T21:47:43.827Z,16.30
2017-08-09T21:50:11.349Z,16.30
2017-08-09T21:52:38.996Z,16.30
2017-08-09T21:55:06.537Z,16.20
2017-08-09T21:57:34.031Z,16.20
2017-08-09T22:00:01.540Z,16.10
2017-08-09T22:02:29.798Z,16.10
2017-08-09T22:04:57.356Z,16.00
2017-08-09T22:07:24.902Z,16.00
2017-08-09T22:09:52.380Z,16.00
2017-08-09T22:12:19.930Z,15.90
2017-08-09T22:14:47.431Z,15.80
2017-08-09T22:17:14.939Z,15.90
2017-08-09T22:19:42.423Z,15.80
2017-08-09T22:22:10.688Z,15.70
2017-08-09T22:24:38.192Z,15.70
2017-08-09T22:27:05.707Z,15.70
2017-08-09T22:29:33.198Z,15.70
2017-08-09T22:32:00.723Z,15.70
2017-08-09T22:34:28.459Z,15.60
2017-08-09T22:36:55.951Z,15.60
2017-08-09T22:39:23.433Z,15.60
2017-08-09T22:41:50.917Z,15.60
2017-08-09T22:44:18.602Z,15.40
2017-08-09T22:46:46.096Z,15.30
2017-08-09T22:49:14.363Z,15.30
2017-08-09T22:51:41.900Z,15.30
2017-08-09T22:54:10.197Z,15.30
2017-08-09T22:56:38.486Z,15.40
2017-08-09T22:59:06.001Z,15.40
2017-08-09T23:01:33.492Z,15.40
2017-08-09T23:04:00.994Z,15.40
2017-08-09T23:06:31.241Z,15.40
2017-08-09T23:08:58.768Z,15.40
2017-08-09T23:11:26.264Z,15.30
2017-08-09T23:13:53.772Z,15.30
2017-08-09T23:16:21.271Z,15.30
2017-08-09T23:18:48.786Z,15.30
2017-08-09T23:21:16.272Z,15.30
2017-08-09T23:23:43.767Z,15.30
2017-08-09T23:26:11.272Z,15.20
2017-08-09T23:28:38.764Z,15.10
2017-08-09T23:31:06.272Z,15.10
2017-08-09T23:33:33.797Z,15.20
2017-08-09T23:36:01.299Z,15.10
2017-08-09T23:38:28.808Z,15.10
2017-08-09T23:40:56.311Z,15.10
2017-08-09T23:43:23.808Z,15.10
2017-08-09T23:45:51.315Z,15.10
2017-08-09T23:48:18.805Z,15.10
2017-08-09T23:50:46.313Z,15.10
2017-08-09T23:53:13.807Z,15.00
2017-08-09T23:55:41.327Z,15.10
2017-08-09T23:58:08.827Z,15.00
